Kosei Maru — JD2378 — position and weather

sailwx.info

Track history (hours):
 
Tides and Currents Weather Stations Pressure Air Temp Water Temp Dewpoint Dewpoint Depression Visibility Wind Speed Wind Dir Waves Ship Positions

Kosei Maru

Last reported at 2017-Nov-19 07:19 UTC. Time now 2017-Nov-19 21:48 UTC.
Position N 34°08' E 134°59'.

Length 75 m; draft 5.2 m.

Type: Tanker. MMSI: 431000156.

Date/timePositionNaut miles runAvg speedWind from/ knotsBaromVisibWave heightAir tempDewpointWater temp
2017-Nov-19 07:19N 34°08' E 134°59'514.9
2017-Nov-19 07:00N 34°13' E 134°59'1813.2
2017-Nov-19 05:40N 34°27' E 135°11'213.4
2017-Nov-19 05:29N 34°28' E 135°13'713.1
2017-Nov-19 04:59N 34°32' E 135°20'510.6
2017-Nov-19 04:30N 34°33' E 135°26'0 0.0
2017-Nov-18 22:43N 34°33' E 135°26'0 0.8
2017-Nov-18 22:30N 34°33' E 135°26'4 7.8
2017-Nov-18 22:00N 34°33' E 135°21'2 0.7
2017-Nov-18 19:41N 34°32' E 135°20'0 0.0
2017-Nov-18 19:29N 34°32' E 135°20'0 0.0
2017-Nov-18 18:59N 34°32' E 135°20'0 0.1
2017-Nov-18 18:11N 34°32' E 135°19'0 0.2
2017-Nov-18 17:59N 34°32' E 135°20'0 0.0
2017-Nov-18 17:29N 34°32' E 135°20'0 0.0
2017-Nov-18 16:23N 34°32' E 135°19'0 0.0
2017-Nov-18 15:59N 34°32' E 135°19'0 0.0
2017-Nov-18 15:17N 34°32' E 135°19'0 0.0
2017-Nov-18 14:59N 34°32' E 135°19'0 0.0
2017-Nov-18 08:47N 34°32' E 135°20'0 0.1
2017-Nov-18 08:05N 34°32' E 135°20'0 2.8
2017-Nov-18 08:00N 34°32' E 135°19'2411.8
2017-Nov-18 05:58N 34°14' E 134°60'22910.2
2017-Nov-17 07:36N 35°00' E 139°32'113.6
2017-Nov-17 07:30N 35°01' E 139°33'713.5
2017-Nov-17 07:01N 35°05' E 139°39'713.6
2017-Nov-17 06:30N 35°10' E 139°45'612.2
2017-Nov-17 06:00N 35°17' E 139°45'612.8
2017-Nov-17 05:30N 35°22' E 139°42'612.8
2017-Nov-17 05:00N 35°28' E 139°47'4 7.4
2017-Nov-17 04:30N 35°32' E 139°46'0 0.0
2017-Nov-16 22:44N 35°32' E 139°46'0 0.8
2017-Nov-16 22:30N 35°31' E 139°46'3 6.3
2017-Nov-16 22:00N 35°29' E 139°48'0 0.5
2017-Nov-16 21:28N 35°29' E 139°48'0 0.0
2017-Nov-16 20:55N 35°29' E 139°48'0 0.0
2017-Nov-16 20:28N 35°29' E 139°48'0 0.0
2017-Nov-16 19:58N 35°29' E 139°48'0 0.0
2017-Nov-16 19:28N 35°29' E 139°48'0 0.0
2017-Nov-16 18:58N 35°29' E 139°48'0 0.0
2017-Nov-16 18:28N 35°29' E 139°48'0 0.3
2017-Nov-16 18:00N 35°29' E 139°48'611.3
2017-Nov-16 17:30N 35°23' E 139°46'612.0
2017-Nov-16 17:00N 35°17' E 139°45'612.8
2017-Nov-16 16:30N 35°11' E 139°46'713.3
2017-Nov-16 16:00N 35°05' E 139°43'713.3
2017-Nov-16 15:30N 35°01' E 139°37'235 5.0
2017-Nov-14 16:12N 34°04' E 135°00'313.7
2017-Nov-14 15:57N 34°07' E 134°60'714.6
2017-Nov-14 15:30N 34°14' E 134°59'1214.5
2017-Nov-14 14:41N 34°26' E 135°00'314.1
2017-Nov-14 14:28N 34°29' E 135°01'614.2
2017-Nov-14 14:00N 34°35' E 135°03'19 0.5
2017-Nov-12 22:42N 34°33' E 135°26'0 0.6
2017-Nov-12 22:30N 34°33' E 135°26'3 5.6
2017-Nov-12 22:00N 34°33' E 135°22'2 0.7
2017-Nov-12 19:07N 34°32' E 135°20'0 0.0
2017-Nov-12 17:55N 34°32' E 135°20'0 0.0
2017-Nov-12 17:25N 34°32' E 135°20'0 0.0
2017-Nov-12 16:49N 34°32' E 135°20'0 0.1
2017-Nov-12 16:13N 34°32' E 135°20'0 0.2
2017-Nov-12 15:55N 34°32' E 135°20'0 0.1
2017-Nov-12 15:07N 34°32' E 135°20'0 0.0
2017-Nov-12 14:49N 34°32' E 135°20'0 0.0
2017-Nov-12 08:42N 34°32' E 135°20'1 3.8
2017-Nov-12 08:30N 34°32' E 135°19'2112.9
2017-Nov-12 06:54N 34°16' E 135°03'513.7
2017-Nov-12 06:30N 34°11' E 135°03'227 9.6
2017-Nov-11 06:53N 35°02' E 139°31'512.5
2017-Nov-11 06:30N 35°05' E 139°36'612.9
2017-Nov-11 06:00N 35°08' E 139°43'612.2
2017-Nov-11 05:30N 35°13' E 139°46'612.1
2017-Nov-11 05:00N 35°19' E 139°43'612.4
2017-Nov-11 04:30N 35°25' E 139°43'610.2
2017-Nov-11 03:55N 35°31' E 139°46'1 0.2
2017-Nov-10 22:25N 35°32' E 139°46'3 4.7
2017-Nov-10 21:53N 35°30' E 139°48'1 2.3
2017-Nov-10 21:27N 35°29' E 139°48'0 0.0
2017-Nov-10 20:55N 35°29' E 139°48'0 0.0
2017-Nov-10 20:26N 35°29' E 139°48'0 0.0
2017-Nov-10 19:58N 35°29' E 139°48'0 0.0
2017-Nov-10 19:30N 35°29' E 139°48'0 0.0
2017-Nov-10 18:51N 35°29' E 139°48'0 0.0
2017-Nov-10 18:30N 35°29' E 139°48'0 0.0
2017-Nov-10 18:00N 35°29' E 139°48'0 0.0
2017-Nov-10 17:26N 35°29' E 139°48'0 0.0
2017-Nov-10 16:59N 35°29' E 139°48'0 0.1
2017-Nov-10 16:26N 35°29' E 139°48'0 0.1
2017-Nov-10 15:59N 35°29' E 139°48'0 0.0
2017-Nov-10 15:26N 35°29' E 139°48'0 0.0
2017-Nov-10 14:56N 35°29' E 139°48'0 0.0
2017-Nov-10 14:29N 35°29' E 139°48'0 0.0
2017-Nov-10 13:53N 35°29' E 139°48'0 0.0
2017-Nov-10 13:17N 35°29' E 139°48'0 0.0
2017-Nov-10 12:59N 35°29' E 139°48'0 0.1
2017-Nov-10 12:29N 35°29' E 139°48'0 0.0
2017-Nov-10 11:56N 35°29' E 139°48'0 0.1
2017-Nov-10 11:29N 35°29' E 139°48'0 0.0
2017-Nov-10 08:53N 35°29' E 139°48'0 0.0
2017-Nov-10 08:29N 35°29' E 139°48'1 2.4
2017-Nov-10 08:01N 35°28' E 139°48'713.3
2017-Nov-10 07:31N 35°22' E 139°45'611.7
2017-Nov-10 07:00N 35°16' E 139°46'713.1
2017-Nov-10 06:30N 35°09' E 139°46'713.6
2017-Nov-10 06:00N 35°04' E 139°41'23811.5
2017-Nov-09 09:17N 34°02' E 135°02'415.1
2017-Nov-09 09:00N 34°06' E 135°04'  
Track history (hours):
 
Tides and Currents Weather Stations Pressure Air Temp Water Temp Dewpoint Dewpoint Depression Visibility Wind Speed Wind Dir Waves Ship Positions

Kosei Maru

Last reported at 2017-Nov-19 07:19 UTC. Time now 2017-Nov-19 21:48 UTC.
Position N 34°08' E 134°59'.

Length 75 m; draft 5.2 m.

Type: Tanker. MMSI: 431000156.

Date/timePositionNaut miles runAvg speedWind from/ knotsBaromVisibWave heightAir tempDewpointWater temp
2017-Nov-19 07:19N 34°08' E 134°59'514.9
2017-Nov-19 07:00N 34°13' E 134°59'1813.2
2017-Nov-19 05:40N 34°27' E 135°11'213.4
2017-Nov-19 05:29N 34°28' E 135°13'713.1
2017-Nov-19 04:59N 34°32' E 135°20'510.6
2017-Nov-19 04:30N 34°33' E 135°26'0 0.0
2017-Nov-18 22:43N 34°33' E 135°26'0 0.8
2017-Nov-18 22:30N 34°33' E 135°26'4 7.8
2017-Nov-18 22:00N 34°33' E 135°21'2 0.7
2017-Nov-18 19:41N 34°32' E 135°20'0 0.0
2017-Nov-18 19:29N 34°32' E 135°20'0 0.0
2017-Nov-18 18:59N 34°32' E 135°20'0 0.1
2017-Nov-18 18:11N 34°32' E 135°19'0 0.2
2017-Nov-18 17:59N 34°32' E 135°20'0 0.0
2017-Nov-18 17:29N 34°32' E 135°20'0 0.0
2017-Nov-18 16:23N 34°32' E 135°19'0 0.0
2017-Nov-18 15:59N 34°32' E 135°19'0 0.0
2017-Nov-18 15:17N 34°32' E 135°19'0 0.0
2017-Nov-18 14:59N 34°32' E 135°19'0 0.0
2017-Nov-18 08:47N 34°32' E 135°20'0 0.1
2017-Nov-18 08:05N 34°32' E 135°20'0 2.8
2017-Nov-18 08:00N 34°32' E 135°19'2411.8
2017-Nov-18 05:58N 34°14' E 134°60'22910.2
2017-Nov-17 07:36N 35°00' E 139°32'113.6
2017-Nov-17 07:30N 35°01' E 139°33'713.5
2017-Nov-17 07:01N 35°05' E 139°39'713.6
2017-Nov-17 06:30N 35°10' E 139°45'612.2
2017-Nov-17 06:00N 35°17' E 139°45'612.8
2017-Nov-17 05:30N 35°22' E 139°42'612.8
2017-Nov-17 05:00N 35°28' E 139°47'4 7.4
2017-Nov-17 04:30N 35°32' E 139°46'0 0.0
2017-Nov-16 22:44N 35°32' E 139°46'0 0.8
2017-Nov-16 22:30N 35°31' E 139°46'3 6.3
2017-Nov-16 22:00N 35°29' E 139°48'0 0.5
2017-Nov-16 21:28N 35°29' E 139°48'0 0.0
2017-Nov-16 20:55N 35°29' E 139°48'0 0.0
2017-Nov-16 20:28N 35°29' E 139°48'0 0.0
2017-Nov-16 19:58N 35°29' E 139°48'0 0.0
2017-Nov-16 19:28N 35°29' E 139°48'0 0.0
2017-Nov-16 18:58N 35°29' E 139°48'0 0.0
2017-Nov-16 18:28N 35°29' E 139°48'0 0.3
2017-Nov-16 18:00N 35°29' E 139°48'611.3
2017-Nov-16 17:30N 35°23' E 139°46'612.0
2017-Nov-16 17:00N 35°17' E 139°45'612.8
2017-Nov-16 16:30N 35°11' E 139°46'713.3
2017-Nov-16 16:00N 35°05' E 139°43'713.3
2017-Nov-16 15:30N 35°01' E 139°37'235 5.0
2017-Nov-14 16:12N 34°04' E 135°00'313.7
2017-Nov-14 15:57N 34°07' E 134°60'714.6
2017-Nov-14 15:30N 34°14' E 134°59'1214.5
2017-Nov-14 14:41N 34°26' E 135°00'314.1
2017-Nov-14 14:28N 34°29' E 135°01'614.2
2017-Nov-14 14:00N 34°35' E 135°03'19 0.5
2017-Nov-12 22:42N 34°33' E 135°26'0 0.6
2017-Nov-12 22:30N 34°33' E 135°26'3 5.6
2017-Nov-12 22:00N 34°33' E 135°22'2 0.7
2017-Nov-12 19:07N 34°32' E 135°20'0 0.0
2017-Nov-12 17:55N 34°32' E 135°20'0 0.0
2017-Nov-12 17:25N 34°32' E 135°20'0 0.0
2017-Nov-12 16:49N 34°32' E 135°20'0 0.1
2017-Nov-12 16:13N 34°32' E 135°20'0 0.2
2017-Nov-12 15:55N 34°32' E 135°20'0 0.1
2017-Nov-12 15:07N 34°32' E 135°20'0 0.0
2017-Nov-12 14:49N 34°32' E 135°20'0 0.0
2017-Nov-12 08:42N 34°32' E 135°20'1 3.8
2017-Nov-12 08:30N 34°32' E 135°19'2112.9
2017-Nov-12 06:54N 34°16' E 135°03'513.7
2017-Nov-12 06:30N 34°11' E 135°03'227 9.6
2017-Nov-11 06:53N 35°02' E 139°31'512.5
2017-Nov-11 06:30N 35°05' E 139°36'612.9
2017-Nov-11 06:00N 35°08' E 139°43'612.2
2017-Nov-11 05:30N 35°13' E 139°46'612.1
2017-Nov-11 05:00N 35°19' E 139°43'612.4
2017-Nov-11 04:30N 35°25' E 139°43'610.2
2017-Nov-11 03:55N 35°31' E 139°46'1 0.2
2017-Nov-10 22:25N 35°32' E 139°46'3 4.7
2017-Nov-10 21:53N 35°30' E 139°48'1 2.3
2017-Nov-10 21:27N 35°29' E 139°48'0 0.0
2017-Nov-10 20:55N 35°29' E 139°48'0 0.0
2017-Nov-10 20:26N 35°29' E 139°48'0 0.0
2017-Nov-10 19:58N 35°29' E 139°48'0 0.0
2017-Nov-10 19:30N 35°29' E 139°48'0 0.0
2017-Nov-10 18:51N 35°29' E 139°48'0 0.0
2017-Nov-10 18:30N 35°29' E 139°48'0 0.0
2017-Nov-10 18:00N 35°29' E 139°48'0 0.0
2017-Nov-10 17:26N 35°29' E 139°48'0 0.0
2017-Nov-10 16:59N 35°29' E 139°48'0 0.1
2017-Nov-10 16:26N 35°29' E 139°48'0 0.1
2017-Nov-10 15:59N 35°29' E 139°48'0 0.0
2017-Nov-10 15:26N 35°29' E 139°48'0 0.0
2017-Nov-10 14:56N 35°29' E 139°48'0 0.0
2017-Nov-10 14:29N 35°29' E 139°48'0 0.0
2017-Nov-10 13:53N 35°29' E 139°48'0 0.0
2017-Nov-10 13:17N 35°29' E 139°48'0 0.0
2017-Nov-10 12:59N 35°29' E 139°48'0 0.1
2017-Nov-10 12:29N 35°29' E 139°48'0 0.0
2017-Nov-10 11:56N 35°29' E 139°48'0 0.1
2017-Nov-10 11:29N 35°29' E 139°48'0 0.0
2017-Nov-10 08:53N 35°29' E 139°48'0 0.0
2017-Nov-10 08:29N 35°29' E 139°48'1 2.4
2017-Nov-10 08:01N 35°28' E 139°48'713.3
2017-Nov-10 07:31N 35°22' E 139°45'611.7
2017-Nov-10 07:00N 35°16' E 139°46'713.1
2017-Nov-10 06:30N 35°09' E 139°46'713.6
2017-Nov-10 06:00N 35°04' E 139°41'23811.5
2017-Nov-09 09:17N 34°02' E 135°02'415.1
2017-Nov-09 09:00N 34°06' E 135°04'  

Dump ship's entire track history